sensor_id;sensor_type;location;lat;lon;timestamp;pressure;altitude;pressure_sealevel;temperature
48894;BMP280;34710;35.798;139.446;2022-09-01T00:02:21;100167.65;;;29.78
48894;BMP280;34710;35.798;139.446;2022-09-01T00:04:51;100170.26;;;29.82
48894;BMP280;34710;35.798;139.446;2022-09-01T00:07:20;100167.71;;;30.08
48894;BMP280;34710;35.798;139.446;2022-09-01T00:09:49;100163.79;;;29.86
48894;BMP280;34710;35.798;139.446;2022-09-01T00:12:18;100157.04;;;30.09
48894;BMP280;34710;35.798;139.446;2022-09-01T00:14:47;100162.30;;;30.32
48894;BMP280;34710;35.798;139.446;2022-09-01T00:17:17;100163.47;;;30.38
48894;BMP280;34710;35.798;139.446;2022-09-01T00:19:47;100164.80;;;30.30
48894;BMP280;34710;35.798;139.446;2022-09-01T00:22:16;100162.75;;;30.78
48894;BMP280;34710;35.798;139.446;2022-09-01T00:24:45;100173.10;;;30.57
48894;BMP280;34710;35.798;139.446;2022-09-01T00:27:14;100183.63;;;30.89
48894;BMP280;34710;35.798;139.446;2022-09-01T00:29:44;100190.77;;;30.67
48894;BMP280;34710;35.798;139.446;2022-09-01T00:32:14;100200.21;;;30.97
48894;BMP280;34710;35.798;139.446;2022-09-01T00:34:43;100198.94;;;31.01
48894;BMP280;34710;35.798;139.446;2022-09-01T00:37:12;100194.98;;;30.91
48894;BMP280;34710;35.798;139.446;2022-09-01T00:39:42;100193.66;;;31.08
48894;BMP280;34710;35.798;139.446;2022-09-01T00:42:10;100194.06;;;31.24
48894;BMP280;34710;35.798;139.446;2022-09-01T00:44:41;100190.38;;;31.30
48894;BMP280;34710;35.798;139.446;2022-09-01T00:47:10;100186.02;;;31.44
48894;BMP280;34710;35.798;139.446;2022-09-01T00:49:41;100177.65;;;31.30
48894;BMP280;34710;35.798;139.446;2022-09-01T00:52:15;100173.54;;;31.44
48894;BMP280;34710;35.798;139.446;2022-09-01T00:54:48;100169.54;;;31.62
48894;BMP280;34710;35.798;139.446;2022-09-01T00:57:19;100158.06;;;31.65
48894;BMP280;34710;35.798;139.446;2022-09-01T00:59:51;100154.06;;;31.53
48894;BMP280;34710;35.798;139.446;2022-09-01T01:02:22;100152.30;;;31.73
48894;BMP280;34710;35.798;139.446;2022-09-01T01:04:52;100149.91;;;31.70
48894;BMP280;34710;35.798;139.446;2022-09-01T01:07:22;100153.02;;;31.75
48894;BMP280;34710;35.798;139.446;2022-09-01T01:09:52;100157.06;;;31.77
48894;BMP280;34710;35.798;139.446;2022-09-01T01:12:21;100152.30;;;31.70
48894;BMP280;34710;35.798;139.446;2022-09-01T01:14:51;100147.61;;;31.81
48894;BMP280;34710;35.798;139.446;2022-09-01T01:17:22;100146.35;;;31.37
48894;BMP280;34710;35.798;139.446;2022-09-01T01:19:53;100146.27;;;31.71
48894;BMP280;34710;35.798;139.446;2022-09-01T01:22:31;100149.86;;;31.59
48894;BMP280;34710;35.798;139.446;2022-09-01T01:25:02;100142.20;;;32.01
48894;BMP280;34710;35.798;139.446;2022-09-01T01:27:33;100138.91;;;32.12
48894;BMP280;34710;35.798;139.446;2022-09-01T01:30:05;100141.67;;;32.14
48894;BMP280;34710;35.798;139.446;2022-09-01T01:32:34;100141.70;;;32.88
48894;BMP280;34710;35.798;139.446;2022-09-01T01:35:05;100142.71;;;32.65
48894;BMP280;34710;35.798;139.446;2022-09-01T01:37:35;100147.74;;;32.63
48894;BMP280;34710;35.798;139.446;2022-09-01T01:40:05;100152.09;;;32.82
48894;BMP280;34710;35.798;139.446;2022-09-01T01:42:35;100153.10;;;32.81
48894;BMP280;34710;35.798;139.446;2022-09-01T01:45:05;100147.32;;;32.72
48894;BMP280;34710;35.798;139.446;2022-09-01T01:47:34;100153.79;;;32.99
48894;BMP280;34710;35.798;139.446;2022-09-01T01:50:04;100159.93;;;32.40
48894;BMP280;34710;35.798;139.446;2022-09-01T01:52:34;100171.92;;;31.84
48894;BMP280;34710;35.798;139.446;2022-09-01T01:55:04;100176.27;;;29.85
48894;BMP280;34710;35.798;139.446;2022-09-01T01:57:34;100174.37;;;31.08
48894;BMP280;34710;35.798;139.446;2022-09-01T02:00:04;100172.59;;;31.03
48894;BMP280;34710;35.798;139.446;2022-09-01T02:02:34;100164.95;;;31.52
48894;BMP280;34710;35.798;139.446;2022-09-01T02:05:04;100150.97;;;31.80
48894;BMP280;34710;35.798;139.446;2022-09-01T02:07:34;100145.26;;;31.72
48894;BMP280;34710;35.798;139.446;2022-09-01T02:10:03;100155.59;;;31.48
48894;BMP280;34710;35.798;139.446;2022-09-01T02:12:33;100164.99;;;30.78
48894;BMP280;34710;35.798;139.446;2022-09-01T02:15:03;100163.36;;;30.74
48894;BMP280;34710;35.798;139.446;2022-09-01T02:17:33;100159.88;;;31.13
48894;BMP280;34710;35.798;139.446;2022-09-01T02:20:02;100143.11;;;31.39
48894;BMP280;34710;35.798;139.446;2022-09-01T02:22:31;100129.95;;;31.75
48894;BMP280;34710;35.798;139.446;2022-09-01T02:25:01;100122.91;;;32.00
48894;BMP280;34710;35.798;139.446;2022-09-01T02:27:30;100115.13;;;32.42
48894;BMP280;34710;35.798;139.446;2022-09-01T02:29:59;100109.60;;;32.63
48894;BMP280;34710;35.798;139.446;2022-09-01T02:32:28;100113.12;;;32.09
48894;BMP280;34710;35.798;139.446;2022-09-01T02:34:58;100105.17;;;32.44
48894;BMP280;34710;35.798;139.446;2022-09-01T02:37:27;100101.64;;;32.02
48894;BMP280;34710;35.798;139.446;2022-09-01T02:39:56;100101.18;;;32.55
48894;BMP280;34710;35.798;139.446;2022-09-01T02:42:26;100092.19;;;33.41
48894;BMP280;34710;35.798;139.446;2022-09-01T02:44:55;100082.24;;;33.81
48894;BMP280;34710;35.798;139.446;2022-09-01T02:47:25;100080.98;;;33.47
48894;BMP280;34710;35.798;139.446;2022-09-01T02:49:54;100066.27;;;32.38
48894;BMP280;34710;35.798;139.446;2022-09-01T02:52:23;100064.67;;;32.66
48894;BMP280;34710;35.798;139.446;2022-09-01T02:54:52;100072.07;;;32.60
48894;BMP280;34710;35.798;139.446;2022-09-01T02:57:21;100066.37;;;33.51
48894;BMP280;34710;35.798;139.446;2022-09-01T02:59:51;100057.19;;;33.23
48894;BMP280;34710;35.798;139.446;2022-09-01T03:02:20;100050.27;;;32.43
48894;BMP280;34710;35.798;139.446;2022-09-01T03:04:50;100052.64;;;33.35
48894;BMP280;34710;35.798;139.446;2022-09-01T03:07:20;100051.90;;;33.78
48894;BMP280;34710;35.798;139.446;2022-09-01T03:09:49;100046.29;;;33.38
48894;BMP280;34710;35.798;139.446;2022-09-01T03:12:19;100048.62;;;34.03
48894;BMP280;34710;35.798;139.446;2022-09-01T03:14:48;100048.02;;;34.01
48894;BMP280;34710;35.798;139.446;2022-09-01T03:17:17;100040.95;;;33.09
48894;BMP280;34710;35.798;139.446;2022-09-01T03:19:47;100039.83;;;33.54
48894;BMP280;34710;35.798;139.446;2022-09-01T03:22:16;100041.03;;;34.34
48894;BMP280;34710;35.798;139.446;2022-09-01T03:24:45;100040.57;;;34.06
48894;BMP280;34710;35.798;139.446;2022-09-01T03:27:14;100037.13;;;34.30
48894;BMP280;34710;35.798;139.446;2022-09-01T03:29:45;100038.27;;;33.82
48894;BMP280;34710;35.798;139.446;2022-09-01T03:32:14;100027.75;;;33.90
48894;BMP280;34710;35.798;139.446;2022-09-01T03:34:44;100030.40;;;34.38
48894;BMP280;34710;35.798;139.446;2022-09-01T03:37:12;100018.03;;;34.42
48894;BMP280;34710;35.798;139.446;2022-09-01T03:39:42;100013.41;;;34.59
48894;BMP280;34710;35.798;139.446;2022-09-01T03:42:11;100017.84;;;34.10
48894;BMP280;34710;35.798;139.446;2022-09-01T03:44:41;100018.69;;;34.41
48894;BMP280;34710;35.798;139.446;2022-09-01T03:47:10;100017.41;;;34.26
48894;BMP280;34710;35.798;139.446;2022-09-01T03:49:39;100012.29;;;34.44
48894;BMP280;34710;35.798;139.446;2022-09-01T03:52:09;100007.54;;;34.15
48894;BMP280;34710;35.798;139.446;2022-09-01T03:54:38;100006.80;;;33.94
48894;BMP280;34710;35.798;139.446;2022-09-01T03:57:07;100008.25;;;34.37
48894;BMP280;34710;35.798;139.446;2022-09-01T03:59:37;100015.31;;;34.50
48894;BMP280;34710;35.798;139.446;2022-09-01T04:02:06;100019.23;;;34.56
48894;BMP280;34710;35.798;139.446;2022-09-01T04:04:35;100013.77;;;35.04
48894;BMP280;34710;35.798;139.446;2022-09-01T04:07:04;100014.99;;;34.46
48894;BMP280;34710;35.798;139.446;2022-09-01T04:09:34;100017.51;;;34.75
48894;BMP280;34710;35.798;139.446;2022-09-01T04:12:05;100015.28;;;33.99
48894;BMP280;34710;35.798;139.446;2022-09-01T04:14:35;100023.01;;;34.33
48894;BMP280;34710;35.798;139.446;2022-09-01T04:17:04;100021.25;;;33.98
48894;BMP280;34710;35.798;139.446;2022-09-01T04:19:36;100025.11;;;34.58
48894;BMP280;34710;35.798;139.446;2022-09-01T04:22:06;100028.31;;;34.61
48894;BMP280;34710;35.798;139.446;2022-09-01T04:24:35;100032.94;;;34.17
48894;BMP280;34710;35.798;139.446;2022-09-01T04:27:05;100032.44;;;33.52
48894;BMP280;34710;35.798;139.446;2022-09-01T04:29:35;100024.47;;;34.55
48894;BMP280;34710;35.798;139.446;2022-09-01T04:32:06;100034.11;;;34.42
48894;BMP280;34710;35.798;139.446;2022-09-01T04:34:37;100032.98;;;34.51
48894;BMP280;34710;35.798;139.446;2022-09-01T04:37:09;100023.86;;;34.52
48894;BMP280;34710;35.798;139.446;2022-09-01T04:39:39;100012.41;;;35.23
48894;BMP280;34710;35.798;139.446;2022-09-01T04:42:08;100012.74;;;35.51
48894;BMP280;34710;35.798;139.446;2022-09-01T04:44:39;100017.01;;;36.12
48894;BMP280;34710;35.798;139.446;2022-09-01T04:47:07;100017.26;;;36.13
48894;BMP280;34710;35.798;139.446;2022-09-01T04:49:37;100021.90;;;36.57
48894;BMP280;34710;35.798;139.446;2022-09-01T04:52:06;100017.81;;;36.81
48894;BMP280;34710;35.798;139.446;2022-09-01T04:54:37;100017.76;;;36.33
48894;BMP280;34710;35.798;139.446;2022-09-01T04:57:07;100013.46;;;36.38
48894;BMP280;34710;35.798;139.446;2022-09-01T04:59:36;100014.47;;;37.27
48894;BMP280;34710;35.798;139.446;2022-09-01T05:02:06;100019.44;;;37.80
48894;BMP280;34710;35.798;139.446;2022-09-01T05:04:36;100027.24;;;37.91
48894;BMP280;34710;35.798;139.446;2022-09-01T05:07:06;100035.37;;;37.61
48894;BMP280;34710;35.798;139.446;2022-09-01T05:09:36;100030.43;;;37.22
48894;BMP280;34710;35.798;139.446;2022-09-01T05:12:06;100023.59;;;36.99
48894;BMP280;34710;35.798;139.446;2022-09-01T05:14:36;100021.77;;;36.73
48894;BMP280;34710;35.798;139.446;2022-09-01T05:17:05;100030.09;;;36.90
48894;BMP280;34710;35.798;139.446;2022-09-01T05:19:35;100039.23;;;36.73
48894;BMP280;34710;35.798;139.446;2022-09-01T05:22:04;100040.22;;;36.71
48894;BMP280;34710;35.798;139.446;2022-09-01T05:24:35;100039.19;;;36.39
48894;BMP280;34710;35.798;139.446;2022-09-01T05:27:06;100047.76;;;36.82
48894;BMP280;34710;35.798;139.446;2022-09-01T05:29:35;100047.54;;;36.47
48894;BMP280;34710;35.798;139.446;2022-09-01T05:32:05;100042.44;;;36.14
48894;BMP280;34710;35.798;139.446;2022-09-01T05:34:34;100038.71;;;36.63
48894;BMP280;34710;35.798;139.446;2022-09-01T05:37:05;100039.08;;;36.29
48894;BMP280;34710;35.798;139.446;2022-09-01T05:39:36;100040.23;;;36.34
48894;BMP280;34710;35.798;139.446;2022-09-01T05:42:06;100043.80;;;36.23
48894;BMP280;34710;35.798;139.446;2022-09-01T05:44:35;100038.43;;;36.82
48894;BMP280;34710;35.798;139.446;2022-09-01T05:47:06;100034.42;;;36.81
48894;BMP280;34710;35.798;139.446;2022-09-01T05:49:35;100032.26;;;36.68
48894;BMP280;34710;35.798;139.446;2022-09-01T05:52:04;100033.85;;;36.65
48894;BMP280;34710;35.798;139.446;2022-09-01T05:54:34;100037.65;;;36.73
48894;BMP280;34710;35.798;139.446;2022-09-01T05:57:03;100042.18;;;36.24
48894;BMP280;34710;35.798;139.446;2022-09-01T05:59:32;100038.64;;;36.32
48894;BMP280;34710;35.798;139.446;2022-09-01T06:02:01;100042.69;;;36.86
48894;BMP280;34710;35.798;139.446;2022-09-01T06:04:31;100051.47;;;37.16
48894;BMP280;34710;35.798;139.446;2022-09-01T06:07:00;100051.55;;;37.29
48894;BMP280;34710;35.798;139.446;2022-09-01T06:09:29;100053.44;;;37.60
48894;BMP280;34710;35.798;139.446;2022-09-01T06:11:58;100058.73;;;37.70
48894;BMP280;34710;35.798;139.446;2022-09-01T06:14:27;100060.32;;;37.62
48894;BMP280;34710;35.798;139.446;2022-09-01T06:16:57;100062.38;;;37.46
48894;BMP280;34710;35.798;139.446;2022-09-01T06:19:26;100060.13;;;37.58
48894;BMP280;34710;35.798;139.446;2022-09-01T06:21:56;100054.34;;;37.27
48894;BMP280;34710;35.798;139.446;2022-09-01T06:24:25;100053.40;;;37.13
48894;BMP280;34710;35.798;139.446;2022-09-01T06:26:55;100055.47;;;37.09
48894;BMP280;34710;35.798;139.446;2022-09-01T06:29:24;100057.02;;;37.32
48894;BMP280;34710;35.798;139.446;2022-09-01T06:31:53;100054.25;;;36.89
48894;BMP280;34710;35.798;139.446;2022-09-01T06:34:23;100056.22;;;36.84
48894;BMP280;34710;35.798;139.446;2022-09-01T06:36:52;100065.56;;;36.70
48894;BMP280;34710;35.798;139.446;2022-09-01T06:39:21;100075.91;;;36.98
48894;BMP280;34710;35.798;139.446;2022-09-01T06:41:51;100079.12;;;36.97
48894;BMP280;34710;35.798;139.446;2022-09-01T06:44:21;100087.90;;;36.80
48894;BMP280;34710;35.798;139.446;2022-09-01T06:46:51;100091.62;;;37.04
48894;BMP280;34710;35.798;139.446;2022-09-01T06:49:21;100089.93;;;36.81
48894;BMP280;34710;35.798;139.446;2022-09-01T06:51:51;100094.17;;;36.71
48894;BMP280;34710;35.798;139.446;2022-09-01T06:54:20;100102.12;;;36.34
48894;BMP280;34710;35.798;139.446;2022-09-01T06:56:49;100101.10;;;36.55
48894;BMP280;34710;35.798;139.446;2022-09-01T06:59:19;100097.22;;;36.41
48894;BMP280;34710;35.798;139.446;2022-09-01T07:01:48;100097.95;;;36.35
48894;BMP280;34710;35.798;139.446;2022-09-01T07:04:18;100101.22;;;36.32
48894;BMP280;34710;35.798;139.446;2022-09-01T07:06:47;100108.91;;;35.97
48894;BMP280;34710;35.798;139.446;2022-09-01T07:09:16;100108.82;;;35.96
48894;BMP280;34710;35.798;139.446;2022-09-01T07:11:45;100108.12;;;35.57
48894;BMP280;34710;35.798;139.446;2022-09-01T07:14:15;100109.24;;;35.92
48894;BMP280;34710;35.798;139.446;2022-09-01T07:16:44;100111.26;;;35.88
48894;BMP280;34710;35.798;139.446;2022-09-01T07:19:13;100111.61;;;35.87
48894;BMP280;34710;35.798;139.446;2022-09-01T07:21:44;100112.02;;;35.87
48894;BMP280;34710;35.798;139.446;2022-09-01T07:24:14;100123.52;;;35.60
48894;BMP280;34710;35.798;139.446;2022-09-01T07:26:43;100121.03;;;35.47
48894;BMP280;34710;35.798;139.446;2022-09-01T07:29:13;100140.04;;;35.10
48894;BMP280;34710;35.798;139.446;2022-09-01T07:31:43;100153.00;;;34.12
48894;BMP280;34710;35.798;139.446;2022-09-01T07:34:13;100155.25;;;33.84
48894;BMP280;34710;35.798;139.446;2022-09-01T07:36:44;100167.01;;;33.10
48894;BMP280;34710;35.798;139.446;2022-09-01T07:39:13;100182.53;;;33.00
48894;BMP280;34710;35.798;139.446;2022-09-01T07:41:43;100175.57;;;32.73
48894;BMP280;34710;35.798;139.446;2022-09-01T07:44:12;100164.50;;;32.92
48894;BMP280;34710;35.798;139.446;2022-09-01T07:46:41;100184.45;;;32.83
48894;BMP280;34710;35.798;139.446;2022-09-01T07:49:10;100175.92;;;32.45
48894;BMP280;34710;35.798;139.446;2022-09-01T07:51:39;100181.21;;;32.13
48894;BMP280;34710;35.798;139.446;2022-09-01T07:54:08;100207.14;;;31.64
48894;BMP280;34710;35.798;139.446;2022-09-01T07:56:38;100242.52;;;29.18
48894;BMP280;34710;35.798;139.446;2022-09-01T07:59:07;100268.27;;;28.09
48894;BMP280;34710;35.798;139.446;2022-09-01T08:01:36;100274.99;;;27.24
48894;BMP280;34710;35.798;139.446;2022-09-01T08:04:06;100286.83;;;27.44
48894;BMP280;34710;35.798;139.446;2022-09-01T08:06:35;100287.66;;;28.10
48894;BMP280;34710;35.798;139.446;2022-09-01T08:09:05;100270.73;;;28.46
48894;BMP280;34710;35.798;139.446;2022-09-01T08:11:34;100255.20;;;29.26
48894;BMP280;34710;35.798;139.446;2022-09-01T08:14:03;100238.64;;;29.17
48894;BMP280;34710;35.798;139.446;2022-09-01T08:16:33;100223.38;;;28.80
48894;BMP280;34710;35.798;139.446;2022-09-01T08:19:02;100215.82;;;28.02
48894;BMP280;34710;35.798;139.446;2022-09-01T08:21:31;100212.37;;;27.49
48894;BMP280;34710;35.798;139.446;2022-09-01T08:24:01;100208.55;;;26.46
48894;BMP280;34710;35.798;139.446;2022-09-01T08:26:31;100210.78;;;27.12
48894;BMP280;34710;35.798;139.446;2022-09-01T08:29:01;100201.92;;;27.61
48894;BMP280;34710;35.798;139.446;2022-09-01T08:31:30;100175.70;;;27.86
48894;BMP280;34710;35.798;139.446;2022-09-01T08:34:00;100166.83;;;27.54
48894;BMP280;34710;35.798;139.446;2022-09-01T08:36:30;100181.04;;;27.59
48894;BMP280;34710;35.798;139.446;2022-09-01T08:38:59;100197.21;;;26.41
48894;BMP280;34710;35.798;139.446;2022-09-01T08:41:39;100193.31;;;26.82
48894;BMP280;34710;35.798;139.446;2022-09-01T08:44:18;100179.39;;;26.63
48894;BMP280;34710;35.798;139.446;2022-09-01T08:46:53;100183.89;;;26.59
48894;BMP280;34710;35.798;139.446;2022-09-01T08:49:25;100200.46;;;27.02
48894;BMP280;34710;35.798;139.446;2022-09-01T08:52:00;100220.30;;;27.63
48894;BMP280;34710;35.798;139.446;2022-09-01T08:54:39;100242.95;;;28.24
48894;BMP280;34710;35.798;139.446;2022-09-01T08:57:15;100258.52;;;28.20
48894;BMP280;34710;35.798;139.446;2022-09-01T08:59:45;100261.65;;;27.66
48894;BMP280;34710;35.798;139.446;2022-09-01T09:02:29;100264.78;;;27.41
48894;BMP280;34710;35.798;139.446;2022-09-01T09:05:06;100262.22;;;27.82
48894;BMP280;34710;35.798;139.446;2022-09-01T09:07:50;100265.93;;;27.89
48894;BMP280;34710;35.798;139.446;2022-09-01T09:10:27;100280.01;;;27.93
48894;BMP280;34710;35.798;139.446;2022-09-01T09:13:05;100284.42;;;28.05
48894;BMP280;34710;35.798;139.446;2022-09-01T09:15:41;100291.85;;;28.11
48894;BMP280;34710;35.798;139.446;2022-09-01T09:18:17;100297.09;;;27.35
48894;BMP280;34710;35.798;139.446;2022-09-01T09:20:48;100318.69;;;26.48
48894;BMP280;34710;35.798;139.446;2022-09-01T09:23:23;100336.87;;;26.61
48894;BMP280;34710;35.798;139.446;2022-09-01T09:25:53;100328.06;;;26.46
48894;BMP280;34710;35.798;139.446;2022-09-01T09:28:23;100301.99;;;26.49
48894;BMP280;34710;35.798;139.446;2022-09-01T09:31:26;100290.75;;;27.11
48894;BMP280;34710;35.798;139.446;2022-09-01T09:33:55;100281.88;;;27.20
48894;BMP280;34710;35.798;139.446;2022-09-01T09:36:31;100274.23;;;27.63
48894;BMP280;34710;35.798;139.446;2022-09-01T09:39:09;100245.70;;;27.88
48894;BMP280;34710;35.798;139.446;2022-09-01T09:41:39;100207.45;;;27.96
48894;BMP280;34710;35.798;139.446;2022-09-01T09:44:20;100194.38;;;28.23
48894;BMP280;34710;35.798;139.446;2022-09-01T09:46:50;100196.32;;;28.53
48894;BMP280;34710;35.798;139.446;2022-09-01T09:49:21;100203.80;;;29.08
48894;BMP280;34710;35.798;139.446;2022-09-01T09:51:53;100222.06;;;28.92
48894;BMP280;34710;35.798;139.446;2022-09-01T09:54:25;100250.18;;;29.08
48894;BMP280;34710;35.798;139.446;2022-09-01T09:57:13;100273.79;;;28.84
48894;BMP280;34710;35.798;139.446;2022-09-01T09:59:46;100284.71;;;27.86
48894;BMP280;34710;35.798;139.446;2022-09-01T10:02:24;100305.52;;;27.33
48894;BMP280;34710;35.798;139.446;2022-09-01T10:04:55;100304.86;;;27.20
48894;BMP280;34710;35.798;139.446;2022-09-01T10:07:28;100327.21;;;27.63
48894;BMP280;34710;35.798;139.446;2022-09-01T10:10:00;100356.42;;;27.01
48894;BMP280;34710;35.798;139.446;2022-09-01T10:12:30;100355.72;;;26.93
48894;BMP280;34710;35.798;139.446;2022-09-01T10:15:03;100357.73;;;26.06
48894;BMP280;34710;35.798;139.446;2022-09-01T10:17:36;100344.20;;;26.39
48894;BMP280;34710;35.798;139.446;2022-09-01T10:20:10;100343.61;;;26.27
48894;BMP280;34710;35.798;139.446;2022-09-01T10:22:41;100348.60;;;26.96
48894;BMP280;34710;35.798;139.446;2022-09-01T10:25:16;100356.92;;;27.25
48894;BMP280;34710;35.798;139.446;2022-09-01T10:27:49;100355.77;;;27.32
48894;BMP280;34710;35.798;139.446;2022-09-01T10:30:20;100361.24;;;27.13
48894;BMP280;34710;35.798;139.446;2022-09-01T10:32:53;100368.73;;;26.36
48894;BMP280;34710;35.798;139.446;2022-09-01T10:35:25;100377.13;;;26.35
48894;BMP280;34710;35.798;139.446;2022-09-01T10:37:56;100375.50;;;25.87
48894;BMP280;34710;35.798;139.446;2022-09-01T10:40:42;100368.88;;;26.83
48894;BMP280;34710;35.798;139.446;2022-09-01T10:43:45;100364.87;;;27.28
48894;BMP280;34710;35.798;139.446;2022-09-01T10:46:45;100375.78;;;26.94
48894;BMP280;34710;35.798;139.446;2022-09-01T10:49:58;100365.51;;;26.72
48894;BMP280;34710;35.798;139.446;2022-09-01T10:53:06;100362.52;;;26.51
48894;BMP280;34710;35.798;139.446;2022-09-01T10:55:46;100363.36;;;26.78
48894;BMP280;34710;35.798;139.446;2022-09-01T10:58:58;100359.34;;;27.39
48894;BMP280;34710;35.798;139.446;2022-09-01T11:02:23;100364.48;;;27.20
48894;BMP280;34710;35.798;139.446;2022-09-01T11:05:25;100362.75;;;27.89
48894;BMP280;34710;35.798;139.446;2022-09-01T11:07:54;100366.50;;;27.57
48894;BMP280;34710;35.798;139.446;2022-09-01T11:10:32;100368.12;;;27.46
48894;BMP280;34710;35.798;139.446;2022-09-01T11:13:35;100360.64;;;27.45
48894;BMP280;34710;35.798;139.446;2022-09-01T11:16:39;100352.39;;;27.95
48894;BMP280;34710;35.798;139.446;2022-09-01T11:19:37;100357.96;;;27.28
48894;BMP280;34710;35.798;139.446;2022-09-01T11:22:22;100354.84;;;27.40
48894;BMP280;34710;35.798;139.446;2022-09-01T11:25:08;100354.96;;;27.43
48894;BMP280;34710;35.798;139.446;2022-09-01T11:28:38;100343.21;;;28.77
48894;BMP280;34710;35.798;139.446;2022-09-01T11:31:39;100344.84;;;28.35
48894;BMP280;34710;35.798;139.446;2022-09-01T11:34:14;100347.02;;;27.81
48894;BMP280;34710;35.798;139.446;2022-09-01T11:36:53;100346.33;;;27.68
48894;BMP280;34710;35.798;139.446;2022-09-01T11:39:32;100347.56;;;28.07
48894;BMP280;34710;35.798;139.446;2022-09-01T11:42:06;100353.46;;;27.35
48894;BMP280;34710;35.798;139.446;2022-09-01T11:44:43;100351.81;;;27.11
48894;BMP280;34710;35.798;139.446;2022-09-01T11:47:17;100354.31;;;26.73
48894;BMP280;34710;35.798;139.446;2022-09-01T11:49:50;100351.12;;;27.09
48894;BMP280;34710;35.798;139.446;2022-09-01T11:52:24;100348.13;;;27.61
48894;BMP280;34710;35.798;139.446;2022-09-01T11:54:54;100343.78;;;27.84
48894;BMP280;34710;35.798;139.446;2022-09-01T11:57:26;100342.19;;;27.89
48894;BMP280;34710;35.798;139.446;2022-09-01T11:59:58;100339.70;;;27.89
48894;BMP280;34710;35.798;139.446;2022-09-01T12:02:30;100335.50;;;28.11
48894;BMP280;34710;35.798;139.446;2022-09-01T12:05:02;100328.48;;;28.41
48894;BMP280;34710;35.798;139.446;2022-09-01T12:07:38;100328.28;;;28.46
48894;BMP280;34710;35.798;139.446;2022-09-01T12:10:31;100326.85;;;28.30
48894;BMP280;34710;35.798;139.446;2022-09-01T12:13:05;100319.73;;;28.57
48894;BMP280;34710;35.798;139.446;2022-09-01T12:15:36;100308.01;;;28.36
48894;BMP280;34710;35.798;139.446;2022-09-01T12:18:13;100299.83;;;28.66
48894;BMP280;34710;35.798;139.446;2022-09-01T12:20:43;100298.63;;;28.60
48894;BMP280;34710;35.798;139.446;2022-09-01T12:23:26;100302.85;;;28.41
48894;BMP280;34710;35.798;139.446;2022-09-01T12:25:57;100310.18;;;28.16
48894;BMP280;34710;35.798;139.446;2022-09-01T12:28:29;100314.94;;;28.31
48894;BMP280;34710;35.798;139.446;2022-09-01T12:31:00;100319.44;;;28.31
48894;BMP280;34710;35.798;139.446;2022-09-01T12:33:31;100320.52;;;28.39
48894;BMP280;34710;35.798;139.446;2022-09-01T12:36:21;100330.13;;;28.45
48894;BMP280;34710;35.798;139.446;2022-09-01T12:38:52;100337.15;;;28.76
48894;BMP280;34710;35.798;139.446;2022-09-01T12:41:30;100335.57;;;28.58
48894;BMP280;34710;35.798;139.446;2022-09-01T12:44:27;100336.15;;;28.87
48894;BMP280;34710;35.798;139.446;2022-09-01T12:46:59;100343.49;;;28.80
48894;BMP280;34710;35.798;139.446;2022-09-01T12:49:37;100349.58;;;28.54
48894;BMP280;34710;35.798;139.446;2022-09-01T12:52:14;100356.14;;;28.59
48894;BMP280;34710;35.798;139.446;2022-09-01T12:54:46;100360.41;;;28.53
48894;BMP280;34710;35.798;139.446;2022-09-01T12:57:25;100362.40;;;28.79
48894;BMP280;34710;35.798;139.446;2022-09-01T13:00:17;100364.53;;;28.61
48894;BMP280;34710;35.798;139.446;2022-09-01T13:02:47;100365.41;;;28.31
48894;BMP280;34710;35.798;139.446;2022-09-01T13:05:21;100368.84;;;28.89
48894;BMP280;34710;35.798;139.446;2022-09-01T13:07:53;100371.60;;;28.66
48894;BMP280;34710;35.798;139.446;2022-09-01T13:10:25;100365.20;;;28.85
48894;BMP280;34710;35.798;139.446;2022-09-01T13:12:55;100365.71;;;28.59
48894;BMP280;34710;35.798;139.446;2022-09-01T13:15:25;100366.73;;;28.34
48894;BMP280;34710;35.798;139.446;2022-09-01T13:17:54;100370.55;;;28.51
48894;BMP280;34710;35.798;139.446;2022-09-01T13:20:23;100366.20;;;28.52
48894;BMP280;34710;35.798;139.446;2022-09-01T13:22:53;100364.04;;;28.66
48894;BMP280;34710;35.798;139.446;2022-09-01T13:25:23;100365.66;;;28.63
48894;BMP280;34710;35.798;139.446;2022-09-01T13:27:52;100367.85;;;28.36
48894;BMP280;34710;35.798;139.446;2022-09-01T13:30:23;100369.42;;;28.39
48894;BMP280;34710;35.798;139.446;2022-09-01T13:32:52;100369.85;;;28.48
48894;BMP280;34710;35.798;139.446;2022-09-01T13:35:23;100370.29;;;28.31
48894;BMP280;34710;35.798;139.446;2022-09-01T13:37:52;100366.57;;;28.39
48894;BMP280;34710;35.798;139.446;2022-09-01T13:40:22;100365.90;;;28.69
48894;BMP280;34710;35.798;139.446;2022-09-01T13:42:53;100366.50;;;28.43
48894;BMP280;34710;35.798;139.446;2022-09-01T13:45:24;100362.23;;;28.09
48894;BMP280;34710;35.798;139.446;2022-09-01T13:47:53;100354.06;;;28.50
48894;BMP280;34710;35.798;139.446;2022-09-01T13:50:23;100349.51;;;28.65
48894;BMP280;34710;35.798;139.446;2022-09-01T13:52:54;100345.01;;;28.68
48894;BMP280;34710;35.798;139.446;2022-09-01T13:55:27;100341.18;;;28.98
48894;BMP280;34710;35.798;139.446;2022-09-01T13:57:57;100336.76;;;28.26
48894;BMP280;34710;35.798;139.446;2022-09-01T14:00:29;100335.42;;;28.66
48894;BMP280;34710;35.798;139.446;2022-09-01T14:03:01;100336.68;;;28.87